createdAt,value
2022-09-20T00:05:37.933Z,10.64
2022-09-20T00:11:39.849Z,10.52
2022-09-20T00:17:41.759Z,10.64
2022-09-20T00:23:44.595Z,10.53
2022-09-20T00:29:46.822Z,10.51
2022-09-20T00:35:49.227Z,10.66
2022-09-20T00:41:53.712Z,10.52
2022-09-20T00:48:04.649Z,10.24
2022-09-20T00:54:10.020Z,10.34
2022-09-20T01:00:13.904Z,10.42
2022-09-20T01:06:16.971Z,10.52
2022-09-20T01:12:24.393Z,10.46
2022-09-20T01:18:28.315Z,10.45
2022-09-20T01:24:33.028Z,10.58
2022-09-20T01:31:24.923Z,10.42
2022-09-20T01:37:42.898Z,10.34
2022-09-20T01:44:21.053Z,10.43
2022-09-20T01:57:12.912Z,10.51
2022-09-20T02:03:39.541Z,10.55
2022-09-20T02:16:41.587Z,10.35
2022-09-20T02:23:05.159Z,10.29
2022-09-20T02:29:45.179Z,10.16
2022-09-20T02:36:14.562Z,10.19
2022-09-20T02:42:40.990Z,10.14
2022-09-20T02:49:31.348Z,10.25
2022-09-20T02:56:29.113Z,10.19
2022-09-20T03:02:59.205Z,10.16
2022-09-20T03:09:28.761Z,10.15
2022-09-20T03:15:52.284Z,10.08
2022-09-20T03:22:34.912Z,10.27
2022-09-20T03:29:08.723Z,10.23
2022-09-20T03:35:33.160Z,10.35
2022-09-20T03:41:53.933Z,10.35
2022-09-20T03:48:23.085Z,10.27
2022-09-20T03:55:14.006Z,10.24
2022-09-20T04:01:45.308Z,10.37
2022-09-20T04:08:14.111Z,10.25
2022-09-20T04:15:00.491Z,10.19
2022-09-20T04:21:47.060Z,10.32
2022-09-20T04:28:06.837Z,10.23
2022-09-20T04:34:50.492Z,10.25
2022-09-20T04:41:16.434Z,10.46
2022-09-20T04:47:25.066Z,10.56
2022-09-20T05:00:27.311Z,10.43
2022-09-20T05:07:09.981Z,10.38
2022-09-20T05:13:30.193Z,10.62
2022-09-20T05:20:05.199Z,10.60
2022-09-20T05:26:51.213Z,10.46
2022-09-20T05:33:37.429Z,10.47
2022-09-20T05:40:24.567Z,10.53
2022-09-20T05:46:35.108Z,10.84
2022-09-20T05:52:51.927Z,10.75
2022-09-20T05:59:31.152Z,10.79
2022-09-20T06:06:16.525Z,10.82
2022-09-20T06:13:03.946Z,10.91
2022-09-20T06:19:19.446Z,10.89
2022-09-20T06:25:42.902Z,10.90
2022-09-20T06:31:44.803Z,10.86
2022-09-20T06:38:31.212Z,11.05
2022-09-20T06:44:33.487Z,11.06
2022-09-20T06:50:38.895Z,11.08
2022-09-20T06:56:40.942Z,10.91
2022-09-20T07:02:43.635Z,11.07
2022-09-20T07:08:46.894Z,11.13
2022-09-20T07:14:50.694Z,11.24
2022-09-20T07:20:52.558Z,11.36
2022-09-20T07:26:57.357Z,11.32
2022-09-20T07:33:00.683Z,11.51
2022-09-20T07:39:02.982Z,11.39
2022-09-20T07:45:05.719Z,11.32
2022-09-20T07:51:11.318Z,11.55
2022-09-20T07:57:13.425Z,11.73
2022-09-20T08:03:15.309Z,11.78
2022-09-20T08:09:17.322Z,12.02
2022-09-20T08:15:19.286Z,11.82
2022-09-20T08:21:21.329Z,11.88
2022-09-20T08:27:23.267Z,12.11
2022-09-20T08:33:25.205Z,12.07
2022-09-20T08:45:49.225Z,12.18
2022-09-20T08:51:51.930Z,12.22
2022-09-20T09:05:35.180Z,12.47
2022-09-20T09:11:45.776Z,12.60
2022-09-20T09:17:48.066Z,12.98
2022-09-20T09:24:01.259Z,13.26
2022-09-20T09:30:23.297Z,13.38
2022-09-20T09:36:26.908Z,14.09
2022-09-20T09:42:31.704Z,14.04
2022-09-20T09:48:34.315Z,14.92
2022-09-20T09:54:42.190Z,16.65
2022-09-20T10:01:08.323Z,17.01
2022-09-20T10:07:39.629Z,15.47
2022-09-20T10:14:26.496Z,15.05
2022-09-20T10:20:53.186Z,19.37
2022-09-20T10:27:19.342Z,22.32
2022-09-20T10:33:28.072Z,20.30
2022-09-20T10:39:39.066Z,17.17
2022-09-20T10:46:32.998Z,14.68
2022-09-20T10:52:59.754Z,14.59
2022-09-20T10:59:57.887Z,14.36
2022-09-20T11:06:48.087Z,14.30
2022-09-20T11:13:08.632Z,14.30
2022-09-20T11:19:11.614Z,13.82
2022-09-20T11:25:48.489Z,13.85
2022-09-20T11:31:54.779Z,13.81
2022-09-20T11:38:27.393Z,14.13
2022-09-20T11:44:29.924Z,17.45
2022-09-20T11:50:57.311Z,20.36
2022-09-20T11:57:00.601Z,19.62
2022-09-20T12:03:08.827Z,19.26
2022-09-20T12:09:39.191Z,20.14
2022-09-20T12:15:42.265Z,22.75
2022-09-20T12:21:59.533Z,23.56
2022-09-20T12:28:01.542Z,27.30
2022-09-20T12:34:15.949Z,26.03
2022-09-20T12:40:19.162Z,25.31
2022-09-20T12:46:31.549Z,23.72
2022-09-20T12:52:57.225Z,20.24
2022-09-20T12:59:05.351Z,19.15
2022-09-20T13:05:34.095Z,22.78
2022-09-20T13:12:10.527Z,22.13
2022-09-20T13:18:15.488Z,23.57
2022-09-20T13:24:20.645Z,27.71
2022-09-20T13:36:58.401Z,24.21
2022-09-20T13:43:24.793Z,22.14
2022-09-20T13:49:32.247Z,20.47
2022-09-20T13:55:39.738Z,19.24
2022-09-20T14:01:53.181Z,17.81
2022-09-20T14:07:56.693Z,19.48
2022-09-20T14:14:04.893Z,22.11
2022-09-20T14:20:07.482Z,20.36
2022-09-20T14:26:37.829Z,18.77
2022-09-20T14:32:42.913Z,18.28
2022-09-20T14:38:47.811Z,17.94
2022-09-20T14:44:53.214Z,17.70
2022-09-20T14:51:18.178Z,18.17
2022-09-20T14:57:22.463Z,24.01
2022-09-20T15:03:36.726Z,27.54
2022-09-20T15:09:39.173Z,28.02
2022-09-20T15:15:46.587Z,27.71
2022-09-20T15:21:48.709Z,22.65
2022-09-20T15:27:53.237Z,23.26
2022-09-20T15:33:55.315Z,24.97
2022-09-20T15:39:57.751Z,24.47
2022-09-20T15:46:16.822Z,25.80
2022-09-20T15:52:25.567Z,24.61
2022-09-20T15:58:34.903Z,19.94
2022-09-20T16:04:37.758Z,17.58
2022-09-20T16:10:39.919Z,15.96
2022-09-20T16:23:57.598Z,14.74
2022-09-20T16:30:21.371Z,14.53
2022-09-20T16:36:27.885Z,17.17
2022-09-20T16:42:30.720Z,16.18
2022-09-20T16:49:11.627Z,15.18
2022-09-20T16:55:57.082Z,14.29
2022-09-20T17:02:01.954Z,14.01
2022-09-20T17:08:38.970Z,13.52
2022-09-20T17:14:40.950Z,13.29
2022-09-20T17:20:43.966Z,13.01
2022-09-20T17:26:46.372Z,12.67
2022-09-20T17:39:45.533Z,12.25
2022-09-20T17:45:56.355Z,12.38
2022-09-20T17:51:58.255Z,12.16
2022-09-20T17:58:00.392Z,12.02
2022-09-20T18:04:04.112Z,11.85
2022-09-20T18:10:07.359Z,11.81
2022-09-20T18:16:12.085Z,11.66
2022-09-20T18:22:14.108Z,11.45
2022-09-20T18:28:18.104Z,11.38
2022-09-20T18:34:26.693Z,11.02
2022-09-20T18:40:29.762Z,10.99
2022-09-20T18:46:32.019Z,10.86
2022-09-20T18:52:38.196Z,10.69
2022-09-20T18:58:40.465Z,10.50
2022-09-20T19:05:14.135Z,10.37
2022-09-20T19:11:39.172Z,10.13
2022-09-20T19:17:53.623Z,10.33
2022-09-20T19:24:28.287Z,10.40
2022-09-20T19:30:30.771Z,10.46
2022-09-20T19:36:45.588Z,10.19
2022-09-20T19:43:00.142Z,10.01
2022-09-20T19:49:20.381Z,9.92
2022-09-20T20:02:09.132Z,9.66
2022-09-20T20:15:29.799Z,9.49
2022-09-20T20:21:55.334Z,9.62
2022-09-20T20:27:58.827Z,9.57
2022-09-20T20:34:03.035Z,9.52
2022-09-20T20:40:07.245Z,9.43
2022-09-20T20:46:52.143Z,9.47
2022-09-20T20:52:57.347Z,9.17
2022-09-20T20:59:02.263Z,9.01
2022-09-20T21:05:04.804Z,9.04
2022-09-20T21:11:25.463Z,9.22
2022-09-20T21:17:27.451Z,9.24
2022-09-20T21:23:34.918Z,9.24
2022-09-20T21:29:36.868Z,9.29
2022-09-20T21:35:38.801Z,9.28
2022-09-20T21:41:41.078Z,9.12
2022-09-20T21:47:42.963Z,9.10
2022-09-20T21:53:45.678Z,9.11
2022-09-20T21:59:47.622Z,9.04
2022-09-20T22:05:49.567Z,8.98
2022-09-20T22:11:51.981Z,8.79
2022-09-20T22:17:55.465Z,8.53
2022-09-20T22:24:03.098Z,8.42
2022-09-20T22:30:05.824Z,8.41
2022-09-20T22:36:09.673Z,8.31
2022-09-20T22:42:11.507Z,8.16
2022-09-20T22:48:13.382Z,8.10
2022-09-20T22:54:15.582Z,8.04
2022-09-20T23:00:17.488Z,8.01
2022-09-20T23:06:22.921Z,7.95
2022-09-20T23:12:24.776Z,8.09
2022-09-20T23:18:26.906Z,8.09
2022-09-20T23:24:28.758Z,7.97
2022-09-20T23:30:31.621Z,7.78
2022-09-20T23:36:38.194Z,7.69
2022-09-20T23:42:40.068Z,7.70
2022-09-20T23:48:42.970Z,7.75
2022-09-20T23:54:44.861Z,7.71
